Time;durP1;ratioP1;P1;durP2;ratioP2;P2;SDS_P1;SDS_P2;PMS_P1;PMS_P2;Temp;Humidity;BMP_temperature;BMP_pressure;BME280_temperature;BME280_humidity;BME280_pressure;Samples;Min_cycle;Max_cycle;Signal;HPM_P1;HPM_P2
2022/09/13 05:40:43;;;;;;;3.58;2.80;;;;;;;15.00;100.00;99000.88;1821839;78;27781;-59
2022/09/13 05:43:11;;;;;;;4.23;3.43;;;;;;;15.28;100.00;99005.98;1814045;79;20994;-59
2022/09/13 05:45:40;;;;;;;4.43;3.80;;;;;;;15.16;100.00;99005.31;1813893;79;21469;-58
2022/09/13 05:48:07;;;;;;;4.60;4.20;;;;;;;15.16;100.00;99015.81;1814058;79;21477;-59
2022/09/13 05:50:37;;;;;;;4.77;4.23;;;;;;;15.25;100.00;99021.42;1813117;79;20931;-68
2022/09/13 05:53:04;;;;;;;6.00;5.00;;;;;;;15.27;100.00;99022.77;1814129;79;21600;-58
2022/09/13 05:55:32;;;;;;;5.80;4.70;;;;;;;15.51;100.00;99028.57;1813982;79;21049;-58
2022/09/13 05:58:00;;;;;;;4.70;4.30;;;;;;;15.45;100.00;99037.94;1814040;79;21257;-57
2022/09/13 06:00:27;;;;;;;5.03;4.47;;;;;;;15.05;100.00;99039.02;1813263;79;21488;-59
2022/09/13 06:02:55;;;;;;;8.47;5.00;;;;;;;15.01;100.00;99040.54;1814354;79;21438;-57
2022/09/13 06:05:23;;;;;;;5.70;5.20;;;;;;;15.16;100.00;99042.58;1814593;79;20880;-57
2022/09/13 06:07:51;;;;;;;6.37;5.77;;;;;;;15.11;100.00;99038.03;1814475;79;20860;-57
2022/09/13 06:10:19;;;;;;;5.37;4.87;;;;;;;15.18;100.00;99041.28;1813643;79;21249;-65
2022/09/13 06:12:46;;;;;;;6.20;5.60;;;;;;;15.17;100.00;99050.20;1814158;79;21339;-57
2022/09/13 06:15:14;;;;;;;6.00;5.40;;;;;;;15.06;100.00;99047.95;1780920;79;21491;-58
2022/09/13 06:17:41;;;;;;;6.13;5.57;;;;;;;14.93;100.00;99055.39;1814413;79;20916;-58
2022/09/13 06:20:09;;;;;;;5.00;4.50;;;;;;;15.13;100.00;99056.97;1814510;79;20907;-68
2022/09/13 06:22:37;;;;;;;5.47;4.97;;;;;;;15.47;100.00;99050.32;1813248;79;22383;-59
2022/09/13 06:25:05;;;;;;;5.10;4.60;;;;;;;15.62;100.00;99056.28;1813828;79;20927;-58
2022/09/13 06:27:32;;;;;;;4.70;4.30;;;;;;;15.60;100.00;99059.12;1813888;79;20932;-58
2022/09/13 06:30:00;;;;;;;4.37;3.97;;;;;;;15.50;100.00;99059.81;1814373;79;20989;-58
2022/09/13 06:32:27;;;;;;;5.17;4.27;;;;;;;15.53;100.00;99053.27;1813246;79;20880;-69
2022/09/13 06:34:54;;;;;;;4.70;4.30;;;;;;;15.42;100.00;99053.69;1814153;79;21733;-58
2022/09/13 06:37:21;;;;;;;6.97;5.10;;;;;;;15.40;100.00;99054.43;1814141;79;20931;-58
2022/09/13 06:39:48;;;;;;;4.67;4.20;;;;;;;15.25;100.00;99058.97;1808701;79;20920;-58
2022/09/13 06:42:17;;;;;;;4.93;4.43;;;;;;;15.39;100.00;99056.00;1803129;79;20941;-58
2022/09/13 06:44:48;;;;;;;6.77;4.97;;;;;;;15.42;100.00;99054.17;1777630;79;20935;-61
2022/09/13 06:47:13;;;;;;;5.00;4.50;;;;;;;15.42;100.00;99052.86;1802549;79;21284;-59
2022/09/13 06:49:40;;;;;;;5.60;5.00;;;;;;;15.48;100.00;99052.69;1803122;79;20861;-58
2022/09/13 06:52:08;;;;;;;6.03;5.37;;;;;;;15.39;100.00;99058.63;1802681;79;21391;-58
2022/09/13 06:54:35;;;;;;;6.33;5.67;;;;;;;15.40;100.00;99052.33;1802233;79;20975;-69
2022/09/13 06:57:02;;;;;;;5.70;4.83;;;;;;;15.47;100.00;99058.20;1801396;79;21138;-58
2022/09/13 06:59:29;;;;;;;5.47;4.97;;;;;;;15.45;100.00;99062.36;1801975;79;21894;-61
2022/09/13 07:01:57;;;;;;;5.33;4.83;;;;;;;15.39;100.00;99066.50;1777608;79;21039;-58
2022/09/13 07:04:24;;;;;;;7.63;6.10;;;;;;;15.51;100.00;99068.48;1801877;79;21461;-58
2022/09/13 07:06:51;;;;;;;5.97;5.17;;;;;;;15.35;100.00;99066.72;1801310;79;20980;-60
2022/09/13 07:09:20;;;;;;;5.60;4.50;;;;;;;15.62;100.00;99065.47;1801562;79;21118;-65
2022/09/13 07:11:48;;;;;;;7.20;5.20;;;;;;;15.64;100.00;99057.59;1801670;79;21476;-59
2022/09/13 07:14:21;;;;;;;5.43;4.93;;;;;;;15.72;100.00;99057.22;1801936;79;20932;-58
2022/09/13 07:16:48;;;;;;;7.10;5.03;;;;;;;15.69;100.00;99060.86;1801520;79;20849;-58
2022/09/13 07:19:25;;;;;;;6.23;4.97;;;;;;;15.79;100.00;99056.48;1801384;79;21450;-58
2022/09/13 07:21:52;;;;;;;4.40;4.00;;;;;;;15.87;100.00;99066.29;1801990;79;21865;-57
2022/09/13 07:24:19;;;;;;;4.67;3.93;;;;;;;15.83;100.00;99065.20;1801359;79;21283;-58
2022/09/13 07:26:47;;;;;;;5.63;4.20;;;;;;;15.76;100.00;99070.66;1801553;79;20959;-58
2022/09/13 07:29:17;;;;;;;4.30;3.90;;;;;;;15.78;100.00;99073.30;1801707;79;21031;-61
2022/09/13 07:31:47;;;;;;;5.28;4.67;;;;;;;15.85;100.00;99067.07;1801909;79;22249;-58
2022/09/13 07:34:22;;;;;;;4.60;4.03;;;;;;;15.89;100.00;99069.48;1801666;79;20905;-59
2022/09/13 07:36:49;;;;;;;5.20;4.70;;;;;;;16.07;100.00;99069.14;1802071;79;21268;-58
2022/09/13 07:39:16;;;;;;;5.40;3.80;;;;;;;16.16;100.00;99079.48;1801585;79;21771;-68
2022/09/13 07:41:45;;;;;;;4.17;2.63;;;;;;;16.45;100.00;99069.50;1801683;79;20929;-57
2022/09/13 07:44:13;;;;;;;3.27;2.57;;;;;;;16.58;100.00;99072.75;1801559;79;20956;-71
2022/09/13 07:46:45;;;;;;;3.03;2.47;;;;;;;16.88;100.00;99070.89;1801631;79;21343;-57
2022/09/13 07:49:16;;;;;;;2.73;1.97;;;;;;;17.06;100.00;99073.13;1801306;79;21905;-58
2022/09/13 07:51:44;;;;;;;4.33;2.40;;;;;;;17.26;100.00;99075.86;1801812;79;22086;-58
2022/09/13 07:54:16;;;;;;;4.33;2.20;;;;;;;16.87;100.00;99075.38;1801183;79;20916;-59
2022/09/13 07:56:43;;;;;;;3.00;2.20;;;;;;;16.35;100.00;99083.08;1801726;79;21089;-57
2022/09/13 07:59:15;;;;;;;2.67;2.20;;;;;;;16.42;100.00;99078.41;1801967;79;20929;-68
2022/09/13 08:01:44;;;;;;;2.67;2.00;;;;;;;16.40;100.00;99083.93;1801947;79;21420;-57
2022/09/13 08:04:16;;;;;;;3.07;1.97;;;;;;;16.38;100.00;99091.79;1801283;79;20920;-59
2022/09/13 08:06:43;;;;;;;2.60;1.80;;;;;;;16.26;100.00;99087.47;1801909;79;21025;-59
2022/09/13 08:09:10;;;;;;;4.37;2.43;;;;;;;16.50;100.00;99084.00;1801317;79;21022;-71
2022/09/13 08:11:47;;;;;;;2.77;1.80;;;;;;;16.52;100.00;99087.71;1801817;79;21058;-59
2022/09/13 08:14:16;;;;;;;2.67;2.03;;;;;;;16.78;100.00;99088.22;1801616;79;21120;-59
2022/09/13 08:16:43;;;;;;;3.70;2.00;;;;;;;16.88;100.00;99092.74;1801791;79;21373;-59
2022/09/13 08:19:14;;;;;;;2.17;1.60;;;;;;;17.07;100.00;99092.34;1801422;79;20975;-73
2022/09/13 08:21:42;;;;;;;3.00;2.22;;;;;;;17.25;100.00;99094.56;1801811;79;20956;-73
2022/09/13 08:24:16;;;;;;;3.90;2.70;;;;;;;17.36;100.00;99096.73;1801283;79;21509;-59
2022/09/13 08:26:43;;;;;;;2.47;1.83;;;;;;;17.42;100.00;99097.80;1801941;79;21122;-62
2022/09/13 08:29:12;;;;;;;3.50;2.30;;;;;;;17.32;100.00;99096.98;1801766;79;21522;-57
2022/09/13 08:31:39;;;;;;;2.77;2.30;;;;;;;17.43;100.00;99086.77;1801341;79;21564;-64
2022/09/13 08:34:13;;;;;;;2.70;1.80;;;;;;;17.82;100.00;99085.89;1801646;79;21507;-58
2022/09/13 08:36:40;;;;;;;3.20;1.90;;;;;;;17.94;100.00;99083.80;1801358;79;21004;-71
2022/09/13 08:39:08;;;;;;;3.73;2.37;;;;;;;18.06;100.00;99086.20;1801404;79;21035;-60
2022/09/13 08:41:46;;;;;;;2.70;2.20;;;;;;;18.16;100.00;99083.59;1801088;79;20976;-61
2022/09/13 08:44:34;;;;;;;3.43;2.20;;;;;;;18.45;100.00;99082.59;1802050;79;21541;-58
2022/09/13 08:47:22;;;;;;;3.93;2.33;;;;;;;18.65;100.00;99073.88;1801819;79;21459;-70
2022/09/13 08:50:02;;;;;;;3.47;2.40;;;;;;;18.74;100.00;99081.28;1801863;79;20944;-57
2022/09/13 08:52:37;;;;;;;3.08;2.12;;;;;;;18.53;100.00;99073.35;1792806;79;21411;-57
2022/09/13 08:55:09;;;;;;;2.87;2.30;;;;;;;18.62;100.00;99077.56;1801608;79;21823;-58
2022/09/13 08:58:12;;;;;;;2.70;2.10;;;;;;;18.69;100.00;99074.14;1799606;79;20977;-58
2022/09/13 09:00:47;;;;;;;3.30;2.40;;;;;;;18.92;100.00;99071.50;1800766;79;21102;-60
2022/09/13 09:03:41;;;;;;;3.30;2.77;;;;;;;19.16;100.00;99064.57;1800970;79;20993;-59
2022/09/13 09:06:15;;;;;;;3.10;2.40;;;;;;;19.26;100.00;99065.08;1801895;79;21095;-59
2022/09/13 09:08:55;;;;;;;2.83;2.33;;;;;;;19.40;100.00;99062.67;1802269;79;21415;-59
2022/09/13 09:11:43;;;;;;;2.83;2.30;;;;;;;19.43;100.00;99066.89;1802556;79;21890;-57
2022/09/13 09:14:28;;;;;;;4.33;2.50;;;;;;;19.53;100.00;99066.05;1802543;79;20881;-58
2022/09/13 09:17:00;;;;;;;3.30;2.60;;;;;;;19.50;100.00;99071.08;1802552;79;21398;-58
2022/09/13 09:19:35;;;;;;;3.07;2.40;;;;;;;19.46;100.00;99078.75;1802255;79;21196;-58
2022/09/13 09:22:05;;;;;;;3.20;2.40;;;;;;;19.33;100.00;99078.80;1802115;79;20968;-71
2022/09/13 09:24:35;;;;;;;3.10;2.20;;;;;;;19.18;100.00;99077.53;1802499;79;21379;-58
2022/09/13 09:27:06;;;;;;;3.90;2.27;;;;;;;19.31;100.00;99071.66;1802262;79;21430;-58
2022/09/13 09:29:34;;;;;;;3.33;2.67;;;;;;;19.58;100.00;99079.23;1802062;79;21466;-58
2022/09/13 09:32:19;;;;;;;2.70;2.20;;;;;;;19.57;100.00;99082.94;1777331;79;21394;-71
2022/09/13 09:35:22;;;;;;;3.13;2.30;;;;;;;19.57;100.00;99079.51;1761120;79;20917;-57
2022/09/13 09:38:30;;;;;;;3.40;2.57;;;;;;;19.64;100.00;99089.30;1801975;79;21148;-58
2022/09/13 09:41:08;;;;;;;3.22;2.60;;;;;;;19.82;100.00;99089.22;1797169;79;27083;-60
2022/09/13 09:44:19;;;;;;;3.17;2.57;;;;;;;19.74;100.00;99089.80;1778012;79;21445;-60
2022/09/13 09:47:08;;;;;;;3.45;3.08;;;;;;;19.67;100.00;99097.48;1763952;79;21106;-61
2022/09/13 09:52:35;;;;;;;3.60;3.03;;;;;;;19.65;100.00;99109.37;1745549;79;21055;-59
2022/09/13 09:55:15;;;;;;;3.67;3.03;;;;;;;19.81;100.00;99115.38;1794026;79;20909;-70
2022/09/13 09:57:53;;;;;;;3.50;2.93;;;;;;;19.72;100.00;99117.02;1761816;79;21367;-59
2022/09/13 10:00:24;;;;;;;4.67;2.93;;;;;;;19.65;100.00;99119.95;1739364;79;22705;-60
2022/09/13 10:02:56;;;;;;;4.40;3.00;;;;;;;19.75;100.00;99119.13;1763702;79;21459;-68
2022/09/13 10:05:25;;;;;;;3.70;3.20;;;;;;;19.54;100.00;99112.55;1739304;79;21469;-60
2022/09/13 10:08:04;;;;;;;3.73;3.23;;;;;;;19.47;100.00;99110.72;1719861;79;20992;-58
2022/09/13 10:10:46;;;;;;;4.15;3.75;;;;;;;19.40;100.00;99116.31;1753750;79;21085;-60
2022/09/13 10:13:16;;;;;;;3.80;3.20;;;;;;;19.38;100.00;99114.98;1762750;79;22585;-57
2022/09/13 10:16:09;;;;;;;4.58;3.90;;;;;;;19.44;100.00;99117.89;1764474;79;21044;-57
2022/09/13 10:18:38;;;;;;;3.90;3.43;;;;;;;19.39;100.00;99121.84;1701762;79;21836;-58
2022/09/13 10:21:24;;;;;;;3.83;3.43;;;;;;;19.39;100.00;99125.81;1763989;79;20960;-58
2022/09/13 10:23:54;;;;;;;3.70;3.30;;;;;;;19.61;100.00;99114.91;1793618;79;21012;-60
2022/09/13 10:26:24;;;;;;;4.40;4.00;;;;;;;19.53;100.00;99116.27;1739602;79;21303;-58
2022/09/13 10:29:07;;;;;;;4.10;3.70;;;;;;;19.46;100.00;99118.39;1794850;79;20905;-58
2022/09/13 10:31:38;;;;;;;5.27;3.97;;;;;;;19.35;100.00;99120.80;1793610;79;21558;-59
2022/09/13 10:34:22;;;;;;;4.70;4.30;;;;;;;19.37;100.00;99114.20;1794919;79;21779;-57
2022/09/13 10:37:02;;;;;;;5.90;3.93;;;;;;;19.57;100.00;99115.98;1795105;79;20925;-57
2022/09/13 10:39:33;;;;;;;5.30;4.67;;;;;;;19.85;100.00;99121.71;1794940;79;25552;-57
2022/09/13 10:42:04;;;;;;;4.93;4.43;;;;;;;19.81;100.00;99123.32;1801095;79;20959;-57
2022/09/13 10:44:44;;;;;;;5.10;4.58;;;;;;;19.79;100.00;99120.17;1802129;79;20921;-66
2022/09/13 10:47:26;;;;;;;4.90;4.27;;;;;;;19.69;100.00;99123.09;1801893;79;20950;-56
2022/09/13 10:49:54;;;;;;;6.23;4.77;;;;;;;19.69;100.00;99119.13;1802072;79;21433;-58
2022/09/13 10:52:43;;;;;;;5.37;4.87;;;;;;;19.61;100.00;99119.67;1777029;79;21275;-60
2022/09/13 10:55:27;;;;;;;5.47;4.97;;;;;;;19.69;100.00;99115.17;1801841;79;20917;-56
2022/09/13 10:58:08;;;;;;;5.50;5.00;;;;;;;19.85;100.00;99113.78;1800209;79;21051;-68
2022/09/13 11:01:11;;;;;;;5.80;5.30;;;;;;;19.80;100.00;99112.48;1802149;79;27377;-57
2022/09/13 11:04:15;;;;;;;6.10;5.00;;;;;;;19.77;100.00;99118.31;1801276;79;20996;-57
2022/09/13 11:07:13;;;;;;;6.40;5.50;;;;;;;19.62;100.00;99121.30;1770065;79;21538;-63
2022/09/13 11:10:03;;;;;;;7.00;6.10;;;;;;;19.52;100.00;99121.30;1801798;79;21023;-63
2022/09/13 11:12:51;;;;;;;6.30;5.70;;;;;;;19.51;100.00;99130.80;1801460;79;21030;-57
2022/09/13 11:15:29;;;;;;;8.80;7.00;;;;;;;19.65;100.00;99133.17;1801297;79;21077;-64
2022/09/13 11:18:31;;;;;;;7.00;6.30;;;;;;;19.66;100.00;99136.88;1801235;79;21044;-56
2022/09/13 11:21:40;;;;;;;7.87;7.07;;;;;;;19.87;100.00;99132.82;1802267;79;21786;-58
2022/09/13 11:24:33;;;;;;;8.27;6.83;;;;;;;19.99;100.00;99129.86;1800989;79;21035;-68
2022/09/13 11:27:18;;;;;;;8.23;7.53;;;;;;;20.05;100.00;99129.56;1800104;79;21062;-57
2022/09/13 11:30:05;;;;;;;7.67;6.87;;;;;;;20.30;100.00;99120.67;1801145;79;20928;-57
2022/09/13 11:33:00;;;;;;;8.00;7.17;;;;;;;20.52;100.00;99124.80;1802070;79;21485;-57
2022/09/13 11:35:55;;;;;;;7.93;7.13;;;;;;;20.83;100.00;99127.45;1800526;79;22129;-62
2022/09/13 11:38:49;;;;;;;8.33;7.53;;;;;;;21.01;100.00;99126.52;1801826;79;21002;-70
2022/09/13 11:41:26;;;;;;;7.83;7.13;;;;;;;21.12;100.00;99119.52;1714645;80;21099;-58
2022/09/13 11:44:18;;;;;;;8.13;7.33;;;;;;;21.44;100.00;99126.13;1777989;80;20972;-57
2022/09/13 11:47:10;;;;;;;7.93;7.23;;;;;;;21.56;100.00;99119.89;1778398;80;21038;-57
2022/09/13 11:50:03;;;;;;;7.90;7.20;;;;;;;21.67;100.00;99123.22;1777824;80;21134;-59
2022/09/13 11:52:38;;;;;;;14.47;7.17;;;;;;;21.68;100.00;99123.47;1778369;80;21042;-57
2022/09/13 11:55:26;;;;;;;9.30;7.30;;;;;;;21.90;100.00;99118.95;1778003;80;20864;-59
2022/09/13 11:57:56;;;;;;;8.00;7.13;;;;;;;22.23;100.00;99117.72;1778686;80;21062;-58
2022/09/13 12:00:45;;;;;;;8.30;7.50;;;;;;;22.42;100.00;99123.80;1778578;80;21405;-57
2022/09/13 12:03:24;;;;;;;8.33;7.53;;;;;;;22.40;100.00;99118.55;1778572;79;21485;-57
2022/09/13 12:06:07;;;;;;;8.97;7.47;;;;;;;22.33;100.00;99119.70;1778777;80;21026;-58
2022/09/13 12:08:49;;;;;;;8.77;7.97;;;;;;;22.23;100.00;99119.05;1745870;80;20909;-57
2022/09/13 12:11:23;;;;;;;8.63;7.83;;;;;;;22.07;100.00;99127.20;1778693;80;20991;-58
2022/09/13 12:14:06;;;;;;;7.90;7.20;;;;;;;21.91;100.00;99129.81;1772352;80;21433;-58
2022/09/13 12:16:55;;;;;;;7.87;7.17;;;;;;;21.80;100.00;99137.64;1777794;80;21237;-57
2022/09/13 12:19:39;;;;;;;8.93;8.03;;;;;;;21.85;100.00;99129.61;1778745;80;20883;-60
2022/09/13 12:22:06;;;;;;;9.77;8.43;;;;;;;21.70;100.00;99129.80;1779027;80;20911;-56
2022/09/13 12:24:44;;;;;;;9.47;8.60;;;;;;;21.51;100.00;99139.81;1778942;80;21406;-56
2022/09/13 12:27:16;;;;;;;10.67;9.13;;;;;;;21.31;100.00;99136.04;1777701;80;21560;-58
2022/09/13 12:29:48;;;;;;;10.03;9.13;;;;;;;21.15;100.00;99135.41;1778799;80;22299;-58
2022/09/13 12:32:15;;;;;;;10.40;9.40;;;;;;;21.23;100.00;99137.98;1778855;80;20917;-57
2022/09/13 12:35:11;;;;;;;10.53;9.53;;;;;;;21.15;100.00;99135.41;1778553;80;20970;-65
2022/09/13 12:37:49;;;;;;;11.20;10.20;;;;;;;21.19;100.00;99132.45;1778876;80;20983;-57
2022/09/13 12:40:46;;;;;;;10.40;9.43;;;;;;;21.35;100.00;99133.11;1778750;79;20963;-68
2022/09/13 12:43:50;;;;;;;10.63;9.57;;;;;;;21.62;100.00;99132.54;1681906;85;21325;-58
2022/09/13 12:46:46;;;;;;;11.47;10.37;;;;;;;21.86;100.00;99133.86;1769036;80;21075;-57
2022/09/13 12:49:46;;;;;;;11.23;10.13;;;;;;;22.04;100.00;99132.28;1773787;80;20944;-67
2022/09/13 12:52:41;;;;;;;11.23;10.20;;;;;;;22.32;100.00;99129.29;1730002;80;21028;-56
2022/09/13 12:55:51;;;;;;;12.93;11.73;;;;;;;22.30;100.00;99127.45;1775027;80;20928;-58
2022/09/13 12:58:39;;;;;;;12.37;11.17;;;;;;;22.28;100.00;99125.09;1774679;80;22277;-58
2022/09/13 13:01:17;;;;;;;12.63;11.43;;;;;;;22.24;100.00;99119.33;1774869;80;20920;-56
2022/09/13 13:03:53;;;;;;;13.80;12.50;;;;;;;22.13;100.00;99122.63;1773670;80;21087;-56
2022/09/13 13:06:38;;;;;;;14.37;13.03;;;;;;;22.06;100.00;99122.19;1775154;80;21426;-56
2022/09/13 13:09:44;;;;;;;15.10;13.70;;;;;;;22.03;100.00;99124.08;1771755;80;20987;-58
2022/09/13 13:12:32;;;;;;;13.73;12.33;;;;;;;22.10;100.00;99126.63;1774683;80;21220;-58
2022/09/13 13:15:06;;;;;;;14.43;13.03;;;;;;;22.30;100.00;99127.45;1768211;80;21459;-56
2022/09/13 13:17:40;;;;;;;15.53;13.70;;;;;;;22.13;100.00;99125.82;1774886;80;20979;-56
2022/09/13 13:20:57;;;;;;;15.60;14.10;;;;;;;21.77;100.00;99126.27;1774696;80;20991;-58
2022/09/13 13:23:37;;;;;;;15.90;14.37;;;;;;;21.45;100.00;99135.66;1774411;80;21078;-67
2022/09/13 13:26:12;;;;;;;15.73;14.17;;;;;;;21.37;100.00;99132.30;1774800;80;21277;-58
2022/09/13 13:28:53;;;;;;;18.03;16.23;;;;;;;21.28;100.00;99126.78;1774588;80;21047;-56
2022/09/13 13:31:31;;;;;;;16.40;14.90;;;;;;;21.17;100.00;99129.81;1773844;80;21604;-65
2022/09/13 13:34:12;;;;;;;17.20;15.57;;;;;;;20.90;100.00;99130.58;1774263;80;21063;-56
2022/09/13 13:36:47;;;;;;;16.70;15.10;;;;;;;20.85;100.00;99133.28;1771200;80;21062;-56
2022/09/13 13:39:29;;;;;;;17.67;15.97;;;;;;;20.84;100.00;99129.06;1773886;80;21378;-57
2022/09/13 13:42:12;;;;;;;16.87;15.23;;;;;;;20.80;100.00;99125.92;1786790;78;20936;-57
2022/09/13 13:44:48;;;;;;;16.97;15.37;;;;;;;20.81;100.00;99128.82;1800840;79;20889;-67
2022/09/13 13:47:20;;;;;;;17.70;15.90;;;;;;;20.89;100.00;99122.38;1801841;79;22120;-56
2022/09/13 13:49:53;;;;;;;17.67;15.83;;;;;;;20.80;100.00;99129.36;1802163;79;20984;-56
2022/09/13 13:52:37;;;;;;;16.03;14.43;;;;;;;20.83;100.00;99128.78;1774647;79;21948;-66
2022/09/13 13:55:41;;;;;;;18.57;16.87;;;;;;;20.80;100.00;99127.25;1801694;79;20976;-58
2022/09/13 13:58:45;;;;;;;18.80;16.83;;;;;;;20.77;100.00;99119.86;1801277;79;21050;-58
2022/09/13 14:01:17;;;;;;;16.30;14.77;;;;;;;20.71;100.00;99127.03;1801393;79;21035;-56
2022/09/13 14:04:08;;;;;;;16.73;15.13;;;;;;;20.55;100.00;99127.69;1801596;79;20952;-55
2022/09/13 14:06:45;;;;;;;16.83;15.33;;;;;;;20.30;100.00;99129.94;1757502;79;21122;-57
2022/09/13 14:09:24;;;;;;;16.63;14.97;;;;;;;20.11;100.00;99133.75;1776513;79;20971;-58
2022/09/13 14:12:35;;;;;;;18.90;16.97;;;;;;;19.89;100.00;99136.00;1801935;79;21062;-57
2022/09/13 14:15:23;;;;;;;17.17;15.50;;;;;;;19.75;100.00;99138.96;1801856;79;20984;-58
2022/09/13 14:18:33;;;;;;;17.30;15.60;;;;;;;19.81;100.00;99139.19;1801205;79;21106;-61
2022/09/13 14:21:03;;;;;;;18.57;16.77;;;;;;;19.77;100.00;99141.58;1801763;79;21700;-57
2022/09/13 14:23:31;;;;;;;16.87;15.37;;;;;;;19.73;100.00;99141.86;1776831;79;21004;-57
2022/09/13 14:25:59;;;;;;;17.83;16.03;;;;;;;19.58;100.00;99147.17;1802059;79;21040;-58
2022/09/13 14:28:26;;;;;;;16.60;15.10;;;;;;;19.41;100.00;99145.63;1801585;79;21517;-58
2022/09/13 14:30:57;;;;;;;16.43;14.83;;;;;;;19.33;100.00;99148.04;1801536;79;20905;-66
2022/09/13 14:33:31;;;;;;;17.67;15.98;;;;;;;19.14;100.00;99153.88;1801211;79;26951;-59
2022/09/13 14:36:07;;;;;;;18.43;16.63;;;;;;;18.87;100.00;99146.23;1801772;79;21319;-59
2022/09/13 14:38:35;;;;;;;18.07;16.17;;;;;;;18.76;100.00;99155.75;1801547;79;21000;-67
2022/09/13 14:41:14;;;;;;;18.27;16.47;;;;;;;18.61;100.00;99153.32;1801788;79;22219;-58
2022/09/13 14:43:42;;;;;;;16.73;15.03;;;;;;;18.56;100.00;99149.37;1796667;79;21035;-59
2022/09/13 14:46:30;;;;;;;18.97;17.07;;;;;;;18.38;100.00;99160.41;1794426;79;21896;-59
2022/09/13 14:49:00;;;;;;;17.93;16.23;;;;;;;18.42;100.00;99160.16;1793483;79;20987;-65
2022/09/13 14:51:31;;;;;;;17.97;16.10;;;;;;;18.36;100.00;99161.19;1794060;79;21968;-58
2022/09/13 14:54:08;;;;;;;;;;;;;;;18.45;100.00;99157.00;1795874;79;20964;-61
2022/09/13 14:56:43;;;;;;;18.07;15.43;;;;;;;18.40;100.00;99166.20;1794465;79;20404;-68
2022/09/13 14:59:37;;;;;;;17.80;15.90;;;;;;;18.44;100.00;99169.91;1794393;79;21491;-58
2022/09/13 15:02:16;;;;;;;18.97;17.17;;;;;;;18.53;100.00;99165.72;1793967;79;20968;-59
2022/09/13 15:04:47;;;;;;;18.37;16.47;;;;;;;18.56;100.00;99163.88;1794621;79;21926;-58
2022/09/13 15:07:33;;;;;;;18.40;16.50;;;;;;;18.59;100.00;99170.47;1794745;79;21553;-57
2022/09/13 15:10:18;;;;;;;19.10;17.17;;;;;;;18.75;100.00;99176.05;1793795;79;21039;-62
2022/09/13 15:12:58;;;;;;;18.83;16.93;;;;;;;18.63;100.00;99177.59;1794379;79;21259;-65
2022/09/13 15:15:40;;;;;;;19.77;16.45;;;;;;;18.57;100.00;99185.78;1794538;79;20984;-59
2022/09/13 15:18:23;;;;;;;18.52;16.73;;;;;;;18.65;100.00;99182.09;1794552;79;20957;-59
2022/09/13 15:20:57;;;;;;;18.67;16.67;;;;;;;18.83;100.00;99182.68;1794449;79;21875;-58
2022/09/13 15:23:32;;;;;;;19.63;17.00;;;;;;;18.68;100.00;99186.06;1794121;79;21067;-60
2022/09/13 15:26:11;;;;;;;21.07;18.97;;;;;;;18.74;100.00;99191.63;1794165;79;21762;-59
2022/09/13 15:28:49;;;;;;;19.10;17.10;;;;;;;18.49;100.00;99189.73;1794361;79;20979;-69
2022/09/13 15:31:22;;;;;;;20.33;18.23;;;;;;;18.33;100.00;99191.52;1794627;79;21083;-58
2022/09/13 15:33:51;;;;;;;22.97;20.57;;;;;;;18.16;100.00;99190.42;1794063;79;21463;-68
2022/09/13 15:36:24;;;;;;;19.87;17.87;;;;;;;18.12;100.00;99196.47;1790065;79;21329;-58
2022/09/13 15:39:12;;;;;;;18.20;16.40;;;;;;;17.88;100.00;99186.86;1793653;79;20967;-59
2022/09/13 15:41:40;;;;;;;19.30;17.13;;;;;;;17.73;100.00;99187.05;1794410;79;21414;-64
2022/09/13 15:44:08;;;;;;;19.17;17.00;;;;;;;17.65;100.00;99192.81;1799453;79;21007;-68
2022/09/13 15:46:47;;;;;;;19.17;17.27;;;;;;;17.70;100.00;99193.35;1801525;79;21082;-59
2022/09/13 15:49:16;;;;;;;18.57;16.63;;;;;;;17.67;100.00;99192.02;1779214;79;21453;-60
2022/09/13 15:51:44;;;;;;;17.67;15.83;;;;;;;17.68;100.00;99197.55;1800946;79;21245;-68
2022/09/13 15:54:15;;;;;;;18.03;16.23;;;;;;;17.43;100.00;99202.68;1801186;79;21951;-60
2022/09/13 15:56:45;;;;;;;17.92;16.15;;;;;;;17.32;100.00;99199.17;1801857;79;21029;-60
2022/09/13 15:59:17;;;;;;;18.33;16.50;;;;;;;17.22;100.00;99203.05;1801847;79;21003;-59
2022/09/13 16:01:44;;;;;;;19.73;17.40;;;;;;;17.07;100.00;99204.25;1801207;79;20948;-60
2022/09/13 16:04:12;;;;;;;18.60;16.67;;;;;;;17.03;100.00;99206.05;1801518;79;21413;-60
2022/09/13 16:06:41;;;;;;;18.20;16.30;;;;;;;16.88;100.00;99209.08;1801787;79;20975;-59
2022/09/13 16:09:20;;;;;;;20.80;16.33;;;;;;;17.07;100.00;99205.56;1801777;79;21031;-59
2022/09/13 16:11:49;;;;;;;19.40;17.30;;;;;;;16.64;100.00;99211.20;1801232;79;21245;-68
2022/09/13 16:14:17;;;;;;;19.57;17.53;;;;;;;16.86;100.00;99215.11;1801698;79;21274;-59
2022/09/13 16:16:45;;;;;;;18.77;16.27;;;;;;;16.56;100.00;99219.02;1801843;79;21241;-60
2022/09/13 16:19:15;;;;;;;19.53;17.43;;;;;;;16.54;100.00;99221.09;1801395;79;21039;-60
2022/09/13 16:21:43;;;;;;;17.62;15.45;;;;;;;16.64;100.00;99217.78;1801280;79;21070;-69
2022/09/13 16:24:10;;;;;;;19.70;17.77;;;;;;;16.55;100.00;99218.72;1801022;79;21043;-60
2022/09/13 16:26:37;;;;;;;18.63;16.67;;;;;;;16.57;100.00;99218.50;1802001;79;21035;-60
2022/09/13 16:29:04;;;;;;;18.03;16.13;;;;;;;16.43;100.00;99225.44;1801846;79;21141;-60
2022/09/13 16:31:32;;;;;;;19.93;16.63;;;;;;;16.24;100.00;99227.59;1800804;79;20968;-65
2022/09/13 16:33:59;;;;;;;19.57;17.47;;;;;;;15.99;100.00;99229.41;1801757;79;21356;-69
2022/09/13 16:36:27;;;;;;;17.97;14.93;;;;;;;15.57;100.00;99240.88;1801325;79;21000;-59
2022/09/13 16:38:57;;;;;;;18.10;16.30;;;;;;;15.31;100.00;99236.55;1801909;79;20998;-60
2022/09/13 16:41:24;;;;;;;18.67;16.67;;;;;;;15.27;100.00;99247.77;1801185;79;22127;-68
2022/09/13 16:43:54;;;;;;;16.83;15.07;;;;;;;15.04;100.00;99250.02;1805210;79;22053;-65
2022/09/13 16:46:21;;;;;;;18.73;16.80;;;;;;;15.09;100.00;99251.41;1810682;79;21095;-59
2022/09/13 16:48:55;;;;;;;19.10;16.93;;;;;;;15.00;100.00;99252.31;1810726;79;21018;-59
2022/09/13 16:51:22;;;;;;;19.63;16.90;;;;;;;14.80;100.00;99250.62;1810111;79;20987;-60
2022/09/13 16:53:50;;;;;;;17.43;15.30;;;;;;;14.81;100.00;99251.72;1810521;79;21280;-58
2022/09/13 16:56:20;;;;;;;18.43;16.13;;;;;;;14.62;100.00;99248.98;1810210;79;20988;-59
2022/09/13 16:58:47;;;;;;;19.23;17.07;;;;;;;14.89;100.00;99252.34;1811209;79;21030;-59
2022/09/13 17:01:19;;;;;;;19.50;16.60;;;;;;;14.84;100.00;99255.16;1810121;79;21058;-59
2022/09/13 17:03:46;;;;;;;19.02;16.97;;;;;;;14.89;100.00;99252.34;1811204;79;21724;-58
2022/09/13 17:06:15;;;;;;;17.50;15.40;;;;;;;14.88;100.00;99253.39;1810392;79;21240;-60
2022/09/13 17:08:49;;;;;;;18.80;16.80;;;;;;;14.83;100.00;99254.09;1811060;79;21540;-59
2022/09/13 17:11:22;;;;;;;18.30;16.40;;;;;;;14.77;100.00;99242.73;1778654;79;21023;-64
2022/09/13 17:13:50;;;;;;;18.03;16.00;;;;;;;14.71;100.00;99246.80;1810794;79;21047;-59
2022/09/13 17:16:33;;;;;;;18.70;16.77;;;;;;;14.66;100.00;99246.20;1810375;79;21000;-59
2022/09/13 17:19:04;;;;;;;19.83;17.63;;;;;;;14.59;100.00;99258.12;1810608;79;21215;-70
2022/09/13 17:21:32;;;;;;;20.30;17.65;;;;;;;14.52;100.00;99251.43;1810483;79;22081;-61
2022/09/13 17:24:00;;;;;;;23.27;18.67;;;;;;;14.48;100.00;99259.45;1810502;79;21011;-58
2022/09/13 17:26:27;;;;;;;22.10;19.43;;;;;;;14.52;100.00;99264.54;1810716;79;21466;-60
2022/09/13 17:28:56;;;;;;;19.80;17.20;;;;;;;14.55;100.00;99260.94;1811003;79;21066;-61
2022/09/13 17:31:23;;;;;;;20.83;17.87;;;;;;;14.54;100.00;99266.40;1810185;79;21799;-60
2022/09/13 17:33:52;;;;;;;22.30;18.07;;;;;;;14.51;100.00;99264.27;1810302;79;22041;-63
2022/09/13 17:36:21;;;;;;;23.73;19.33;;;;;;;14.47;100.00;99264.39;1810795;79;21262;-60
2022/09/13 17:38:48;;;;;;;25.83;21.30;;;;;;;14.44;100.00;99267.50;1810445;79;21521;-60
2022/09/13 17:41:17;;;;;;;25.33;22.37;;;;;;;14.38;100.00;99276.28;1810852;79;20923;-69
2022/09/13 17:43:45;;;;;;;29.47;25.00;;;;;;;14.22;100.00;99280.42;1807500;79;21156;-61